createdAt,value
2022-09-07T00:02:58.358Z,5.60
2022-09-07T00:06:25.617Z,6.90
2022-09-07T00:09:52.928Z,4.50
2022-09-07T00:13:20.141Z,3.60
2022-09-07T00:16:47.270Z,5.50
2022-09-07T00:20:15.356Z,6.20
2022-09-07T00:23:42.682Z,8.10
2022-09-07T00:27:11.585Z,5.80
2022-09-07T00:30:44.018Z,6.40
2022-09-07T00:34:10.967Z,7.40
2022-09-07T00:37:37.967Z,7.90
2022-09-07T00:41:06.043Z,6.40
2022-09-07T00:45:10.268Z,5.80
2022-09-07T00:48:40.719Z,6.70
2022-09-07T00:52:10.887Z,5.90
2022-09-07T00:55:40.037Z,6.00
2022-09-07T00:59:08.008Z,4.80
2022-09-07T01:02:35.582Z,4.90
2022-09-07T01:06:07.130Z,5.50
2022-09-07T01:09:34.091Z,7.00
2022-09-07T01:13:01.252Z,4.80
2022-09-07T01:16:44.008Z,5.20
2022-09-07T01:20:41.636Z,4.80
2022-09-07T01:24:50.328Z,7.70
2022-09-07T01:28:22.030Z,4.60
2022-09-07T01:31:58.951Z,4.90
2022-09-07T01:35:33.245Z,5.00
2022-09-07T01:39:03.894Z,4.90
2022-09-07T01:42:36.381Z,6.70
2022-09-07T01:46:07.238Z,4.80
2022-09-07T01:49:41.633Z,4.00
2022-09-07T01:53:18.311Z,7.80
2022-09-07T01:56:48.458Z,4.90
2022-09-07T02:00:20.572Z,5.70
2022-09-07T02:04:00.827Z,6.70
2022-09-07T02:07:36.430Z,7.10
2022-09-07T02:11:07.073Z,6.40
2022-09-07T02:14:39.456Z,4.20
2022-09-07T02:18:09.486Z,6.60
2022-09-07T02:21:42.700Z,5.90
2022-09-07T02:25:15.573Z,5.00
2022-09-07T02:28:42.834Z,8.50
2022-09-07T02:32:09.985Z,4.30
2022-09-07T02:35:37.448Z,6.40
2022-09-07T02:39:04.405Z,6.50
2022-09-07T02:42:33.731Z,3.70
2022-09-07T02:46:17.299Z,7.80
2022-09-07T02:50:13.080Z,8.70
2022-09-07T02:54:01.810Z,6.60
2022-09-07T02:57:36.212Z,6.80
2022-09-07T03:01:10.251Z,6.80
2022-09-07T03:04:47.804Z,8.50
2022-09-07T03:08:17.968Z,11.20
2022-09-07T03:11:44.820Z,8.70
2022-09-07T03:15:14.550Z,8.30
2022-09-07T03:18:41.404Z,7.10
2022-09-07T03:22:08.661Z,7.60
2022-09-07T03:25:35.701Z,6.50
2022-09-07T03:29:02.890Z,7.10
2022-09-07T03:32:33.464Z,8.80
2022-09-07T03:36:04.777Z,7.10
2022-09-07T03:39:32.179Z,7.10
2022-09-07T03:42:59.021Z,7.50
2022-09-07T03:46:26.188Z,6.60
2022-09-07T03:49:53.095Z,5.50
2022-09-07T03:53:19.981Z,6.30
2022-09-07T03:56:46.805Z,5.20
2022-09-07T04:00:16.383Z,6.30
2022-09-07T04:03:43.913Z,8.80
2022-09-07T04:07:11.205Z,7.80
2022-09-07T04:10:43.077Z,6.20
2022-09-07T04:14:10.164Z,8.00
2022-09-07T04:17:37.929Z,6.50
2022-09-07T04:21:05.063Z,7.10
2022-09-07T04:24:32.622Z,6.20
2022-09-07T04:28:00.397Z,7.60
2022-09-07T04:31:27.659Z,5.30
2022-09-07T04:34:55.084Z,4.60
2022-09-07T04:38:21.857Z,6.40
2022-09-07T04:41:48.646Z,7.40
2022-09-07T04:45:16.942Z,7.90
2022-09-07T04:48:50.695Z,5.60
2022-09-07T04:55:43.049Z,6.50
2022-09-07T04:59:10.337Z,6.70
2022-09-07T05:02:38.217Z,6.10
2022-09-07T05:06:06.260Z,6.20
2022-09-07T05:09:33.441Z,7.20
2022-09-07T05:13:00.853Z,8.90
2022-09-07T05:16:28.938Z,8.90
2022-09-07T05:19:56.338Z,6.10
2022-09-07T05:23:24.721Z,6.00
2022-09-07T05:26:51.664Z,8.30
2022-09-07T05:37:54.203Z,5.80
2022-09-07T05:41:22.399Z,7.90
2022-09-07T05:44:49.767Z,12.50
2022-09-07T05:48:17.578Z,10.80
2022-09-07T05:51:44.882Z,11.50
2022-09-07T05:55:28.805Z,13.30
2022-09-07T05:58:57.787Z,15.50
2022-09-07T06:02:25.099Z,10.50
2022-09-07T06:06:00.265Z,10.50
2022-09-07T06:09:30.668Z,10.90
2022-09-07T06:13:00.307Z,11.10
2022-09-07T06:16:29.276Z,10.60
2022-09-07T06:19:59.976Z,9.90
2022-09-07T06:23:27.892Z,9.60
2022-09-07T06:26:55.268Z,9.20
2022-09-07T06:30:25.703Z,11.00
2022-09-07T06:33:53.665Z,11.70
2022-09-07T06:37:20.522Z,9.70
2022-09-07T06:40:48.250Z,8.40
2022-09-07T06:44:15.345Z,7.90
2022-09-07T06:47:43.278Z,7.40
2022-09-07T06:51:15.363Z,7.80
2022-09-07T06:54:58.828Z,7.50
2022-09-07T06:58:26.665Z,8.20
2022-09-07T07:01:55.304Z,7.70
2022-09-07T07:05:22.622Z,8.00
2022-09-07T07:08:49.532Z,5.50
2022-09-07T07:15:42.012Z,6.40
2022-09-07T07:19:08.853Z,4.80
2022-09-07T07:22:52.246Z,11.20
2022-09-07T07:26:22.483Z,8.60
2022-09-07T07:29:50.259Z,5.90
2022-09-07T07:33:17.468Z,7.90
2022-09-07T07:36:44.853Z,4.90
2022-09-07T07:40:16.745Z,6.10
2022-09-07T07:43:46.606Z,6.50
2022-09-07T07:47:16.327Z,11.50
2022-09-07T07:50:44.813Z,8.50
2022-09-07T07:54:14.772Z,9.40
2022-09-07T07:57:42.599Z,8.40
2022-09-07T08:01:12.246Z,12.90
2022-09-07T08:04:38.982Z,6.80
2022-09-07T08:08:06.291Z,6.20
2022-09-07T08:11:35.320Z,6.50
2022-09-07T08:15:03.868Z,3.40
2022-09-07T08:18:31.352Z,10.80
2022-09-07T08:21:58.285Z,5.40
2022-09-07T08:25:25.698Z,4.70
2022-09-07T08:28:52.842Z,8.50
2022-09-07T08:32:19.849Z,9.50
2022-09-07T08:35:55.023Z,5.50
2022-09-07T08:39:23.546Z,5.30
2022-09-07T08:43:01.704Z,5.20
2022-09-07T08:46:35.487Z,6.60
2022-09-07T08:50:08.377Z,3.90
2022-09-07T08:53:37.887Z,6.50
2022-09-07T08:57:21.877Z,3.00
2022-09-07T09:04:23.290Z,8.60
2022-09-07T09:08:03.782Z,5.70
2022-09-07T09:11:45.320Z,4.50
2022-09-07T09:15:23.292Z,5.50
2022-09-07T09:19:20.749Z,4.40
2022-09-07T09:22:53.743Z,6.60
2022-09-07T09:26:25.548Z,8.30
2022-09-07T09:29:52.400Z,7.00
2022-09-07T09:33:23.559Z,3.80
2022-09-07T09:36:53.310Z,4.50
2022-09-07T09:40:29.369Z,3.10
2022-09-07T09:44:02.801Z,5.50
2022-09-07T09:47:34.188Z,7.40
2022-09-07T10:06:21.313Z,5.30
2022-09-07T10:09:53.945Z,4.90
2022-09-07T10:13:25.709Z,4.20
2022-09-07T10:16:53.119Z,3.90
2022-09-07T10:20:35.199Z,3.50
2022-09-07T10:24:15.199Z,5.00
2022-09-07T10:27:42.150Z,1.90
2022-09-07T10:31:17.893Z,3.30
2022-09-07T10:34:58.479Z,6.60
2022-09-07T10:38:26.370Z,4.10
2022-09-07T10:42:01.000Z,2.80
2022-09-07T10:45:37.925Z,4.50
2022-09-07T10:49:20.325Z,4.10
2022-09-07T10:52:52.984Z,3.60
2022-09-07T10:56:23.862Z,5.30
2022-09-07T11:00:11.704Z,3.60
2022-09-07T11:03:58.616Z,3.50
2022-09-07T11:07:39.762Z,1.90
2022-09-07T11:11:15.734Z,2.60
2022-09-07T11:14:49.717Z,2.30
2022-09-07T11:18:22.110Z,2.00
2022-09-07T11:22:02.537Z,4.10
2022-09-07T11:25:35.639Z,3.70
2022-09-07T11:33:05.126Z,1.90
2022-09-07T11:36:37.765Z,5.70
2022-09-07T11:40:16.112Z,6.10
2022-09-07T11:43:47.113Z,6.50
2022-09-07T11:47:22.634Z,2.80
2022-09-07T11:50:54.566Z,4.60
2022-09-07T11:54:40.873Z,1.00
2022-09-07T11:58:34.085Z,6.50
2022-09-07T12:02:17.680Z,5.10
2022-09-07T12:06:16.913Z,1.20
2022-09-07T12:10:10.202Z,3.70
2022-09-07T12:14:12.135Z,8.10
2022-09-07T12:17:54.595Z,2.20
2022-09-07T12:21:39.470Z,4.50
2022-09-07T12:25:19.843Z,5.80
2022-09-07T12:29:30.252Z,2.40
2022-09-07T12:33:28.762Z,8.30
2022-09-07T12:37:06.044Z,3.20
2022-09-07T12:41:02.521Z,4.70
2022-09-07T12:44:31.247Z,3.90
2022-09-07T12:48:06.125Z,1.60
2022-09-07T13:00:05.391Z,1.20
2022-09-07T13:04:20.463Z,3.90
2022-09-07T13:08:09.329Z,3.80
2022-09-07T13:11:40.231Z,4.00
2022-09-07T13:15:14.612Z,2.80
2022-09-07T13:18:47.853Z,7.70
2022-09-07T13:22:44.128Z,4.90
2022-09-07T13:26:36.690Z,4.60
2022-09-07T13:30:21.268Z,5.20
2022-09-07T13:33:53.034Z,3.30
2022-09-07T13:37:24.438Z,4.60
2022-09-07T13:40:54.261Z,3.60
2022-09-07T13:44:26.955Z,5.00
2022-09-07T13:48:05.413Z,3.20
2022-09-07T13:51:39.698Z,3.20
2022-09-07T13:55:25.865Z,4.00
2022-09-07T13:58:55.400Z,5.40
2022-09-07T14:02:30.786Z,4.10
2022-09-07T14:06:31.951Z,2.20
2022-09-07T14:10:19.782Z,2.40
2022-09-07T14:13:54.614Z,5.80
2022-09-07T14:17:22.503Z,2.40
2022-09-07T14:20:52.447Z,5.00
2022-09-07T14:24:29.838Z,3.60
2022-09-07T14:28:05.030Z,4.00
2022-09-07T14:34:58.458Z,1.30
2022-09-07T14:42:23.136Z,2.50
2022-09-07T14:45:51.097Z,2.50
2022-09-07T14:49:25.985Z,2.90
2022-09-07T14:57:01.409Z,4.20
2022-09-07T15:00:34.292Z,5.10
2022-09-07T15:04:03.594Z,5.10
2022-09-07T15:07:42.787Z,3.60
2022-09-07T15:15:10.560Z,3.30
2022-09-07T15:19:01.246Z,4.40
2022-09-07T15:22:28.096Z,4.50
2022-09-07T15:25:55.165Z,3.80
2022-09-07T15:29:24.159Z,5.30
2022-09-07T15:32:52.716Z,7.70
2022-09-07T15:36:20.446Z,5.90
2022-09-07T15:39:47.717Z,4.30
2022-09-07T15:43:20.644Z,4.30
2022-09-07T15:50:39.041Z,3.30
2022-09-07T15:54:13.435Z,11.10
2022-09-07T15:57:51.250Z,5.80
2022-09-07T16:05:14.019Z,2.60
2022-09-07T16:08:41.669Z,6.40
2022-09-07T16:16:10.197Z,4.50
2022-09-07T16:19:41.909Z,1.90
2022-09-07T16:23:16.445Z,9.00
2022-09-07T16:26:46.466Z,12.90
2022-09-07T16:30:14.697Z,3.90
2022-09-07T16:33:41.649Z,3.10
2022-09-07T16:37:11.257Z,5.00
2022-09-07T16:40:42.026Z,7.90
2022-09-07T16:44:08.547Z,3.50
2022-09-07T16:47:35.339Z,5.70
2022-09-07T16:51:03.023Z,4.90
2022-09-07T16:54:29.822Z,1.80
2022-09-07T17:01:43.381Z,3.60
2022-09-07T17:05:14.208Z,9.00
2022-09-07T17:08:45.467Z,8.30
2022-09-07T17:12:13.736Z,3.60
2022-09-07T17:15:40.511Z,6.00
2022-09-07T17:24:54.805Z,4.30
2022-09-07T17:28:22.209Z,9.40
2022-09-07T17:32:30.194Z,11.60
2022-09-07T17:36:05.945Z,3.50
2022-09-07T17:39:33.078Z,5.80
2022-09-07T17:46:48.167Z,7.10
2022-09-07T17:50:15.160Z,5.10
2022-09-07T17:53:45.587Z,5.00
2022-09-07T17:57:12.645Z,5.40
2022-09-07T18:00:52.801Z,9.30
2022-09-07T18:04:19.615Z,6.90
2022-09-07T18:07:48.767Z,8.10
2022-09-07T18:15:07.196Z,3.70
2022-09-07T18:18:35.865Z,6.80
2022-09-07T18:22:06.684Z,5.50
2022-09-07T18:25:33.755Z,7.10
2022-09-07T18:29:03.819Z,8.60
2022-09-07T18:32:33.800Z,8.10
2022-09-07T18:36:00.694Z,7.90
2022-09-07T18:39:28.299Z,10.50
2022-09-07T18:42:57.673Z,6.20
2022-09-07T18:46:26.534Z,8.80
2022-09-07T18:49:54.873Z,7.00
2022-09-07T18:53:22.603Z,12.30
2022-09-07T18:56:49.579Z,9.50
2022-09-07T19:00:17.956Z,9.60
2022-09-07T19:03:46.020Z,8.50
2022-09-07T19:07:29.418Z,10.30
2022-09-07T19:10:58.185Z,8.30
2022-09-07T19:14:27.941Z,10.20
2022-09-07T19:17:55.451Z,7.30
2022-09-07T19:21:24.543Z,12.60
2022-09-07T19:24:57.593Z,10.40
2022-09-07T19:28:27.179Z,10.10
2022-09-07T19:32:07.938Z,10.10
2022-09-07T19:35:39.516Z,12.20
2022-09-07T19:39:06.986Z,9.10
2022-09-07T19:42:34.008Z,5.20
2022-09-07T19:46:01.068Z,9.80
2022-09-07T19:49:28.467Z,8.70
2022-09-07T19:52:56.337Z,9.90
2022-09-07T19:56:23.024Z,14.30
2022-09-07T19:59:53.040Z,6.60
2022-09-07T20:03:30.303Z,8.70
2022-09-07T20:07:02.071Z,7.20
2022-09-07T20:10:29.421Z,11.30
2022-09-07T20:13:58.557Z,10.60
2022-09-07T20:17:34.962Z,9.60
2022-09-07T20:21:13.755Z,11.60
2022-09-07T20:24:48.348Z,11.50
2022-09-07T20:28:36.108Z,6.50
2022-09-07T20:32:05.494Z,12.20
2022-09-07T20:35:36.407Z,8.30
2022-09-07T20:39:04.747Z,11.00
2022-09-07T20:42:38.161Z,13.80
2022-09-07T20:46:10.599Z,12.70
2022-09-07T20:49:38.239Z,10.90
2022-09-07T20:53:08.435Z,9.00
2022-09-07T20:56:45.927Z,9.70
2022-09-07T21:00:16.878Z,10.00
2022-09-07T21:03:49.372Z,26.40
2022-09-07T21:07:21.921Z,12.90
2022-09-07T21:10:51.498Z,12.10
2022-09-07T21:14:22.578Z,9.80
2022-09-07T21:17:49.631Z,10.60
2022-09-07T21:21:19.819Z,10.90
2022-09-07T21:24:49.575Z,11.10
2022-09-07T21:28:16.300Z,9.10
2022-09-07T21:31:43.744Z,7.10
2022-09-07T21:35:12.861Z,8.50
2022-09-07T21:38:41.523Z,11.30
2022-09-07T21:42:10.666Z,10.70
2022-09-07T21:45:45.664Z,13.30
2022-09-07T21:49:12.883Z,10.90
2022-09-07T21:52:41.654Z,10.00
2022-09-07T21:56:12.932Z,12.50
2022-09-07T21:59:42.628Z,9.30
2022-09-07T22:03:10.273Z,9.00
2022-09-07T22:06:38.004Z,9.10
2022-09-07T22:10:05.620Z,11.10
2022-09-07T22:13:33.517Z,12.20
2022-09-07T22:17:00.992Z,9.50
2022-09-07T22:20:31.493Z,9.10
2022-09-07T22:24:02.014Z,15.90
2022-09-07T22:27:28.760Z,12.80
2022-09-07T22:31:09.040Z,13.40
2022-09-07T22:34:37.643Z,9.90
2022-09-07T22:38:04.582Z,17.20
2022-09-07T22:41:33.122Z,18.20
2022-09-07T22:45:00.249Z,11.50
2022-09-07T22:48:30.721Z,13.80
2022-09-07T22:51:58.210Z,11.90
2022-09-07T22:55:25.494Z,15.40
2022-09-07T22:58:56.076Z,15.10
2022-09-07T23:02:23.072Z,12.80
2022-09-07T23:05:50.491Z,18.40
2022-09-07T23:09:19.178Z,12.00
2022-09-07T23:12:46.146Z,9.50
2022-09-07T23:16:13.655Z,10.40
2022-09-07T23:19:40.346Z,12.50
2022-09-07T23:23:07.950Z,9.40
2022-09-07T23:26:35.684Z,16.50
2022-09-07T23:30:02.878Z,13.00
2022-09-07T23:33:30.696Z,11.20
2022-09-07T23:36:58.085Z,9.20
2022-09-07T23:40:24.880Z,6.90
2022-09-07T23:43:52.537Z,8.00
2022-09-07T23:47:19.759Z,10.80
2022-09-07T23:50:48.177Z,11.40
2022-09-07T23:54:18.978Z,11.20
2022-09-07T23:57:45.868Z,10.70
